Time;durP1;ratioP1;P1;durP2;ratioP2;P2;SDS_P1;SDS_P2;PMS_P1;PMS_P2;Temp;Humidity;BMP_temperature;BMP_pressure;BME280_temperature;BME280_humidity;BME280_pressure;Samples;Min_cycle;Max_cycle;Signal;HPM_P1;HPM_P2
2021/11/26 00:01:50;;;;;;;12.60;6.40;;;6.20;99.90;;;;;;4917697;29;20955;-69
2021/11/26 00:04:19;;;;;;;12.57;6.03;;;6.20;99.90;;;;;;4924077;23;20473;-63
2021/11/26 00:06:46;;;;;;;11.87;6.00;;;6.30;99.90;;;;;;4917410;29;20490;-69
2021/11/26 00:09:17;;;;;;;11.77;5.20;;;6.20;99.90;;;;;;4918109;23;20924;-63
2021/11/26 00:11:45;;;;;;;16.10;8.40;;;6.20;99.90;;;;;;4899098;29;20447;-66
2021/11/26 00:14:18;;;;;;;18.63;7.03;;;6.20;99.90;;;;;;4907894;23;20494;-68
2021/11/26 00:16:53;;;;;;;11.20;5.07;;;6.20;99.90;;;;;;4916787;29;20929;-70
2021/11/26 00:19:21;;;;;;;14.97;7.77;;;6.20;99.90;;;;;;4923909;23;20504;-65
2021/11/26 00:21:49;;;;;;;9.67;5.10;;;6.20;99.90;;;;;;4917219;29;20485;-63
2021/11/26 00:24:17;;;;;;;9.60;5.20;;;6.20;99.90;;;;;;4924024;23;20446;-70
2021/11/26 00:26:47;;;;;;;8.70;4.40;;;6.20;99.90;;;;;;4917059;29;20478;-71
2021/11/26 00:29:16;;;;;;;11.07;6.23;;;6.10;99.90;;;;;;4925317;23;20483;-58
2021/11/26 00:31:44;;;;;;;12.80;6.30;;;6.10;99.90;;;;;;4915911;29;20466;-67
2021/11/26 00:34:12;;;;;;;13.30;5.30;;;6.00;99.90;;;;;;4917390;29;20466;-69
2021/11/26 00:36:39;;;;;;;13.03;7.17;;;6.00;99.90;;;;;;4938190;23;20534;-71
2021/11/26 00:39:07;;;;;;;12.93;6.40;;;6.10;99.90;;;;;;4916552;29;20490;-72
2021/11/26 00:41:34;;;;;;;9.07;4.80;;;6.10;99.90;;;;;;4908001;23;21000;-69
2021/11/26 00:44:03;;;;;;;12.20;5.90;;;6.10;99.90;;;;;;4897770;29;20769;-67
2021/11/26 00:46:29;;;;;;;11.40;3.50;;;6.10;99.90;;;;;;4930892;23;20506;-68
2021/11/26 00:48:56;;;;;;;12.33;6.20;;;6.10;99.90;;;;;;4916109;29;20442;-65
2021/11/26 00:51:23;;;;;;;10.63;5.23;;;6.10;99.90;;;;;;4938212;23;20472;-69
2021/11/26 00:53:50;;;;;;;9.13;5.00;;;6.10;99.90;;;;;;4915010;29;20545;-69
2021/11/26 00:56:17;;;;;;;11.00;5.17;;;6.10;99.90;;;;;;4922564;23;20485;-61
2021/11/26 00:58:44;;;;;;;11.37;5.73;;;6.20;99.90;;;;;;4914237;29;20490;-66
2021/11/26 01:01:13;;;;;;;15.53;6.60;;;6.20;99.90;;;;;;4915291;29;20465;-64
2021/11/26 01:03:40;;;;;;;13.00;6.50;;;6.20;99.90;;;;;;4922998;23;20494;-64
2021/11/26 01:06:07;;;;;;;13.90;6.20;;;6.20;99.90;;;;;;4914288;29;20447;-67
2021/11/26 01:08:37;;;;;;;9.27;5.37;;;6.20;99.90;;;;;;4921810;23;20536;-71
2021/11/26 01:11:04;;;;;;;9.43;5.50;;;6.20;99.90;;;;;;4914521;29;20824;-72
2021/11/26 01:13:33;;;;;;;7.10;5.00;;;6.20;99.90;;;;;;4908842;23;20503;-71
2021/11/26 01:16:00;;;;;;;7.20;4.07;;;6.20;99.90;;;;;;4895795;29;20869;-69
2021/11/26 01:18:28;;;;;;;15.37;6.07;;;6.20;99.90;;;;;;4914398;23;20506;-62
2021/11/26 01:20:55;;;;;;;7.27;4.70;;;6.20;99.90;;;;;;4914563;29;20960;-68
2021/11/26 01:23:25;;;;;;;9.90;5.17;;;6.20;99.90;;;;;;4912405;23;20495;-71
2021/11/26 01:25:52;;;;;;;21.33;6.20;;;6.20;99.90;;;;;;4896141;29;20790;-67
2021/11/26 01:28:22;;;;;;;9.70;5.50;;;6.20;99.90;;;;;;4911276;23;20483;-63
2021/11/26 01:30:50;;;;;;;11.93;5.43;;;6.30;99.90;;;;;;4915582;29;20453;-65
2021/11/26 01:33:18;;;;;;;12.00;5.30;;;6.20;99.90;;;;;;4923363;23;20486;-69
2021/11/26 01:35:51;;;;;;;9.47;4.93;;;6.20;99.90;;;;;;4914330;29;20609;-71
2021/11/26 01:38:21;;;;;;;6.90;4.00;;;6.20;99.90;;;;;;4922070;23;20521;-71
2021/11/26 01:40:49;;;;;;;14.00;5.23;;;6.20;99.90;;;;;;4914408;29;20446;-71
2021/11/26 01:43:20;;;;;;;13.30;6.80;;;6.20;99.90;;;;;;4936391;23;20437;-64
2021/11/26 01:45:49;;;;;;;13.63;5.50;;;6.20;99.90;;;;;;4914623;29;20474;-64
2021/11/26 01:48:17;;;;;;;11.27;5.40;;;6.20;99.90;;;;;;4922031;23;20552;-67
2021/11/26 01:50:45;;;;;;;9.73;5.37;;;6.20;99.90;;;;;;4913590;29;20474;-68
2021/11/26 01:53:13;;;;;;;8.40;4.43;;;6.30;99.90;;;;;;4913625;29;20426;-64
2021/11/26 01:55:41;;;;;;;10.80;5.67;;;6.20;99.90;;;;;;4919076;23;20565;-63
2021/11/26 01:58:10;;;;;;;10.80;6.03;;;6.30;99.90;;;;;;4911907;29;20466;-70
2021/11/26 02:00:40;;;;;;;11.83;5.90;;;6.30;99.90;;;;;;4919735;23;20553;-69
2021/11/26 02:03:07;;;;;;;11.73;6.57;;;6.40;99.90;;;;;;4913472;29;20553;-68
2021/11/26 02:05:34;;;;;;;10.60;5.20;;;6.30;99.90;;;;;;4920352;23;20493;-69
2021/11/26 02:08:01;;;;;;;10.97;5.13;;;6.30;99.90;;;;;;4912858;29;20451;-64
2021/11/26 02:10:29;;;;;;;9.73;5.30;;;6.30;99.90;;;;;;4919735;23;20486;-67
2021/11/26 02:12:56;;;;;;;6.33;3.43;;;6.30;99.90;;;;;;4912821;29;20482;-73
2021/11/26 02:15:26;;;;;;;7.27;4.70;;;6.30;99.90;;;;;;4911742;23;20491;-71
2021/11/26 02:17:55;;;;;;;9.93;4.93;;;6.30;99.90;;;;;;4894208;29;20530;-69
2021/11/26 02:20:25;;;;;;;8.63;5.03;;;6.20;99.90;;;;;;4908299;23;20513;-65
2021/11/26 02:22:55;;;;;;;8.53;3.97;;;6.30;99.90;;;;;;4913691;29;20465;-69
2021/11/26 02:25:24;;;;;;;9.67;4.40;;;6.30;99.90;;;;;;4919520;23;20534;-63
2021/11/26 02:27:53;;;;;;;8.67;5.37;;;6.30;99.90;;;;;;4912134;29;20478;-63
2021/11/26 02:30:22;;;;;;;8.80;5.03;;;6.30;99.90;;;;;;4934750;23;20502;-70
2021/11/26 02:32:53;;;;;;;10.23;5.93;;;6.30;99.90;;;;;;4913347;29;20461;-72
2021/11/26 02:35:20;;;;;;;27.17;6.93;;;6.30;99.90;;;;;;4920407;23;20542;-59
2021/11/26 02:37:49;;;;;;;11.40;5.53;;;6.30;99.90;;;;;;4913259;29;20431;-66
2021/11/26 02:40:18;;;;;;;15.00;5.03;;;6.30;99.90;;;;;;4921138;23;20470;-60
2021/11/26 02:42:46;;;;;;;10.07;6.30;;;6.30;99.90;;;;;;4912049;29;20458;-70
2021/11/26 02:45:15;;;;;;;15.30;5.33;;;6.30;99.90;;;;;;4912618;29;20454;-62
2021/11/26 02:47:42;;;;;;;12.53;5.30;;;6.30;99.90;;;;;;4924099;23;20527;-61
2021/11/26 02:50:11;;;;;;;8.20;5.20;;;6.30;99.90;;;;;;4917881;29;20450;-66
2021/11/26 02:52:43;;;;;;;8.63;4.67;;;6.30;99.90;;;;;;4938144;23;20541;-70
2021/11/26 02:55:14;;;;;;;11.30;5.67;;;6.30;99.90;;;;;;4916791;29;20482;-69
2021/11/26 02:57:42;;;;;;;7.63;4.77;;;6.30;99.90;;;;;;4923308;23;20481;-70
2021/11/26 03:00:12;;;;;;;8.57;5.87;;;6.30;99.90;;;;;;4917030;29;20435;-64
2021/11/26 03:02:39;;;;;;;18.00;6.90;;;6.30;99.90;;;;;;4910863;23;20574;-61
2021/11/26 03:05:07;;;;;;;14.40;5.77;;;6.30;99.90;;;;;;4897438;29;20447;-67
2021/11/26 03:07:34;;;;;;;8.80;5.60;;;6.30;99.90;;;;;;4914003;23;20501;-67
2021/11/26 03:10:01;;;;;;;17.83;6.17;;;6.30;99.90;;;;;;4915472;29;20560;-66
2021/11/26 03:12:30;;;;;;;10.97;6.90;;;6.30;99.90;;;;;;4922227;23;20518;-68
2021/11/26 03:14:58;;;;;;;15.90;6.20;;;6.40;99.90;;;;;;4914991;29;20486;-69
2021/11/26 03:17:26;;;;;;;12.23;5.00;;;6.40;99.90;;;;;;4921132;23;20975;-67
2021/11/26 03:19:53;;;;;;;17.10;7.50;;;6.50;99.90;;;;;;4914374;29;20470;-70
2021/11/26 03:22:21;;;;;;;10.83;6.33;;;6.60;99.90;;;;;;4920715;23;21083;-70
2021/11/26 03:24:47;;;;;;;16.07;7.77;;;6.60;99.90;;;;;;4915938;29;20473;-69
2021/11/26 03:27:14;;;;;;;15.20;6.60;;;6.60;99.90;;;;;;4922440;23;20446;-69
2021/11/26 03:29:43;;;;;;;12.80;5.47;;;6.50;99.90;;;;;;4915944;29;20541;-70
2021/11/26 03:32:10;;;;;;;13.60;5.20;;;6.50;99.90;;;;;;4924015;23;20446;-53
2021/11/26 03:34:37;;;;;;;9.60;5.90;;;6.60;99.90;;;;;;4914014;29;20494;-70
2021/11/26 03:37:04;;;;;;;11.10;5.80;;;6.60;99.90;;;;;;4915776;29;20479;-69
2021/11/26 03:39:32;;;;;;;10.33;5.30;;;6.60;99.90;;;;;;4906351;23;20527;-71
2021/11/26 03:41:59;;;;;;;8.20;4.50;;;6.60;99.90;;;;;;4895647;29;20964;-70
2021/11/26 03:44:26;;;;;;;17.57;5.90;;;6.60;99.90;;;;;;4916831;23;20498;-69
2021/11/26 03:46:54;;;;;;;10.20;5.97;;;6.50;99.90;;;;;;4915022;29;20515;-70
2021/11/26 03:49:21;;;;;;;16.73;8.27;;;6.50;99.90;;;;;;4921551;23;20518;-64
2021/11/26 03:51:48;;;;;;;13.77;6.10;;;6.60;99.90;;;;;;4914754;29;20442;-59
2021/11/26 03:54:15;;;;;;;12.33;5.53;;;6.60;99.90;;;;;;4921864;23;20486;-68
2021/11/26 03:56:42;;;;;;;13.10;6.93;;;6.60;99.90;;;;;;4915767;29;20501;-70
2021/11/26 03:59:09;;;;;;;14.37;6.77;;;6.60;99.90;;;;;;4930968;23;20506;-70
2021/11/26 04:01:36;;;;;;;11.37;5.27;;;6.60;99.90;;;;;;4896704;29;20454;-72
2021/11/26 04:04:04;;;;;;;14.60;6.23;;;6.50;99.90;;;;;;4908281;23;20493;-70
2021/11/26 04:06:31;;;;;;;15.93;5.30;;;6.50;99.90;;;;;;4915231;29;20431;-62
2021/11/26 04:08:58;;;;;;;10.97;5.73;;;6.50;99.90;;;;;;4935926;23;20516;-65
2021/11/26 04:11:26;;;;;;;13.27;6.70;;;6.50;99.90;;;;;;4914868;29;20532;-62
2021/11/26 04:13:56;;;;;;;12.80;5.50;;;6.50;99.90;;;;;;4923596;23;20439;-39
2021/11/26 04:16:23;;;;;;;12.60;5.70;;;6.50;99.90;;;;;;4893827;29;20463;-67
2021/11/26 04:18:50;;;;;;;14.30;7.20;;;6.50;99.90;;;;;;4896173;29;20452;-66
2021/11/26 04:21:18;;;;;;;10.23;6.77;;;6.50;99.90;;;;;;4919596;23;20517;-68
2021/11/26 04:23:45;;;;;;;10.40;5.17;;;6.50;99.90;;;;;;4914370;29;20466;-62
2021/11/26 04:26:12;;;;;;;23.33;7.67;;;6.40;99.90;;;;;;4934900;23;20501;-67
2021/11/26 04:28:39;;;;;;;7.30;4.47;;;6.40;99.90;;;;;;4913538;29;20462;-71
2021/11/26 04:31:06;;;;;;;10.50;6.53;;;6.50;99.90;;;;;;4908550;23;20491;-71
2021/11/26 04:33:34;;;;;;;14.90;7.80;;;6.50;99.90;;;;;;4894468;29;20447;-68
2021/11/26 04:36:01;;;;;;;15.20;6.83;;;6.50;99.90;;;;;;4911500;23;20526;-71
2021/11/26 04:38:30;;;;;;;9.00;6.23;;;6.50;99.90;;;;;;4913412;29;20462;-70
2021/11/26 04:40:57;;;;;;;21.03;6.97;;;6.50;99.90;;;;;;4920868;23;20497;-58
2021/11/26 04:43:24;;;;;;;9.37;5.70;;;6.50;99.90;;;;;;4913175;29;20470;-61
2021/11/26 04:45:51;;;;;;;14.70;5.40;;;6.50;99.90;;;;;;4920425;23;20505;-63
2021/11/26 04:48:19;;;;;;;9.30;5.77;;;6.50;99.90;;;;;;4914333;29;20443;-65
2021/11/26 04:50:46;;;;;;;9.80;5.90;;;6.50;99.90;;;;;;4936083;23;20529;-70
2021/11/26 04:53:16;;;;;;;14.07;5.40;;;6.50;99.90;;;;;;4914877;29;20493;-67
2021/11/26 04:55:45;;;;;;;11.77;4.90;;;6.50;99.90;;;;;;4921353;23;20545;-61
2021/11/26 04:58:12;;;;;;;11.20;4.87;;;6.50;99.90;;;;;;4914663;29;20446;-69
2021/11/26 05:03:07;;;;;;;17.93;6.50;;;6.40;99.90;;;;;;4874290;29;20523;-66
2021/11/26 05:05:34;;;;;;;8.77;5.40;;;6.40;99.90;;;;;;4877725;29;20501;-70
2021/11/26 05:08:01;;;;;;;8.93;4.70;;;6.50;99.90;;;;;;4917434;23;20502;-72
2021/11/26 05:10:32;;;;;;;16.33;9.07;;;6.50;99.90;;;;;;4914080;29;20450;-66
2021/11/26 05:13:02;;;;;;;14.47;5.73;;;6.50;99.90;;;;;;4920649;23;20494;-67
2021/11/26 05:15:30;;;;;;;15.20;6.00;;;6.50;99.90;;;;;;4912726;29;20494;-67
2021/11/26 05:17:59;;;;;;;12.13;6.13;;;6.50;99.90;;;;;;4920044;23;20490;-68
2021/11/26 05:20:27;;;;;;;9.50;6.40;;;6.50;99.90;;;;;;4913031;29;20450;-66
2021/11/26 05:22:54;;;;;;;13.20;5.50;;;6.50;99.90;;;;;;4920502;23;20848;-70
2021/11/26 05:25:21;;;;;;;11.63;6.53;;;6.50;99.90;;;;;;4913005;29;20488;-68
2021/11/26 05:27:48;;;;;;;11.43;7.00;;;6.50;99.90;;;;;;4934525;23;20525;-71
2021/11/26 05:30:17;;;;;;;8.70;5.20;;;6.50;99.90;;;;;;4912608;29;20481;-70
2021/11/26 05:32:44;;;;;;;12.50;6.43;;;6.50;99.90;;;;;;4934135;23;20502;-62
2021/11/26 05:35:13;;;;;;;11.33;5.93;;;6.50;99.90;;;;;;4912813;29;20501;-60
2021/11/26 05:37:41;;;;;;;17.07;8.93;;;6.50;99.90;;;;;;4919618;23;20494;-70
2021/11/26 05:40:12;;;;;;;19.40;6.37;;;6.50;99.90;;;;;;4912210;29;20744;-72
2021/11/26 05:42:39;;;;;;;11.90;5.40;;;6.60;99.90;;;;;;4919170;23;20980;-58
2021/11/26 05:45:08;;;;;;;13.10;6.50;;;6.60;99.90;;;;;;4911662;29;20494;-64
2021/11/26 05:50:03;;;;;;;11.40;5.50;;;6.60;99.90;;;;;;4913670;23;20509;-71
2021/11/26 05:55:13;;;;;;;17.17;7.13;;;6.50;99.90;;;;;;4932614;23;20508;-65
2021/11/26 05:57:40;;;;;;;10.67;5.20;;;6.50;99.90;;;;;;4913235;29;20462;-65
2021/11/26 06:00:13;;;;;;;21.60;4.80;;;6.50;99.90;;;;;;4904448;23;20835;-63
2021/11/26 06:02:40;;;;;;;8.70;5.33;;;6.40;99.90;;;;;;4894599;29;20941;-66
2021/11/26 06:05:09;;;;;;;11.27;6.43;;;6.40;99.90;;;;;;4917336;23;20504;-64
2021/11/26 06:07:36;;;;;;;9.10;5.10;;;6.50;99.90;;;;;;4912150;29;20450;-70
2021/11/26 06:10:05;;;;;;;14.30;7.30;;;6.50;99.90;;;;;;4919292;23;20491;-70
2021/11/26 06:12:32;;;;;;;10.70;5.90;;;6.50;99.90;;;;;;4913453;29;20616;-70
2021/11/26 06:14:59;;;;;;;11.20;5.00;;;6.50;99.90;;;;;;4919715;23;20498;-68
2021/11/26 06:17:26;;;;;;;12.43;4.73;;;6.40;99.90;;;;;;4913189;29;20480;-62
2021/11/26 06:19:53;;;;;;;9.60;5.17;;;6.40;99.90;;;;;;4910850;23;20529;-64
2021/11/26 06:22:23;;;;;;;8.33;5.70;;;6.40;99.90;;;;;;4894335;29;20467;-65
2021/11/26 06:24:49;;;;;;;10.87;4.67;;;6.30;99.90;;;;;;4907957;23;20505;-72
2021/11/26 06:27:16;;;;;;;10.23;5.63;;;6.30;99.90;;;;;;4912245;29;20443;-71
2021/11/26 06:29:44;;;;;;;9.40;4.63;;;6.30;99.90;;;;;;4913598;23;20502;-69
2021/11/26 06:32:13;;;;;;;9.60;4.87;;;6.40;99.90;;;;;;4893858;29;20444;-70
2021/11/26 06:34:40;;;;;;;12.80;5.50;;;6.40;99.90;;;;;;4900368;23;20491;-62
2021/11/26 06:37:07;;;;;;;7.23;3.87;;;6.40;99.90;;;;;;4890183;29;20867;-69
2021/11/26 06:39:36;;;;;;;10.00;4.70;;;6.40;99.90;;;;;;4894831;23;20472;-71
2021/11/26 06:42:03;;;;;;;7.30;4.30;;;6.30;99.90;;;;;;4902544;29;20435;-71
2021/11/26 06:44:30;;;;;;;14.23;4.53;;;6.20;99.90;;;;;;4902453;29;20449;-71
2021/11/26 06:46:57;;;;;;;13.07;6.80;;;6.20;99.90;;;;;;4909694;23;20490;-66
2021/11/26 06:49:24;;;;;;;11.20;4.80;;;6.20;99.90;;;;;;4902776;29;20794;-64
2021/11/26 06:51:51;;;;;;;7.83;5.57;;;6.20;99.90;;;;;;4915218;23;20505;-71
2021/11/26 06:54:17;;;;;;;17.57;5.33;;;6.20;99.90;;;;;;4907850;29;20486;-65
2021/11/26 06:56:46;;;;;;;10.50;5.00;;;6.20;99.90;;;;;;4934586;23;20513;-70
2021/11/26 06:59:13;;;;;;;6.43;4.90;;;6.20;99.90;;;;;;4907783;29;20479;-70
2021/11/26 07:01:41;;;;;;;6.90;4.30;;;6.20;99.90;;;;;;4914388;23;20490;-71
2021/11/26 07:04:09;;;;;;;8.93;5.30;;;6.20;99.90;;;;;;4908811;29;20450;-73
2021/11/26 07:06:36;;;;;;;13.97;5.37;;;6.30;99.90;;;;;;4921776;23;20971;-70
2021/11/26 07:09:05;;;;;;;7.03;4.40;;;6.30;99.90;;;;;;4905429;29;20869;-64
2021/11/26 07:11:32;;;;;;;8.90;5.00;;;6.40;99.90;;;;;;4910762;23;20561;-68
2021/11/26 07:14:01;;;;;;;11.33;5.60;;;6.40;99.90;;;;;;4912952;29;20474;-69
2021/11/26 07:16:33;;;;;;;9.00;4.67;;;6.30;99.90;;;;;;4912240;23;20527;-70
2021/11/26 07:19:00;;;;;;;12.50;7.63;;;6.30;99.90;;;;;;4890714;29;20475;-62
2021/11/26 07:21:27;;;;;;;8.30;4.03;;;6.30;99.90;;;;;;4895774;23;20573;-64
2021/11/26 07:23:55;;;;;;;7.03;5.13;;;6.30;99.90;;;;;;4902435;29;20922;-65
2021/11/26 07:26:22;;;;;;;7.60;4.13;;;6.30;99.90;;;;;;4912166;23;20518;-64
2021/11/26 07:28:49;;;;;;;6.63;3.40;;;6.30;99.90;;;;;;4887131;29;20455;-65
2021/11/26 07:31:17;;;;;;;5.37;2.87;;;6.30;99.90;;;;;;4888808;29;20479;-68
2021/11/26 07:33:45;;;;;;;5.60;3.67;;;6.20;99.90;;;;;;4915224;23;21010;-66
2021/11/26 07:36:12;;;;;;;6.80;4.20;;;6.20;99.90;;;;;;4910435;29;20496;-65
2021/11/26 07:38:39;;;;;;;8.13;4.60;;;6.30;99.90;;;;;;4916154;23;20530;-56
2021/11/26 07:41:06;;;;;;;12.77;4.93;;;6.30;99.90;;;;;;4908701;29;20450;-66
2021/11/26 07:43:33;;;;;;;8.67;4.50;;;6.30;99.90;;;;;;4914779;23;20494;-62
2021/11/26 07:46:02;;;;;;;13.30;5.10;;;6.40;99.90;;;;;;4908819;29;20567;-66
2021/11/26 07:48:30;;;;;;;7.50;4.17;;;6.40;99.90;;;;;;4922979;23;20474;-65
2021/11/26 07:50:58;;;;;;;8.40;5.27;;;6.40;99.90;;;;;;4909656;29;20431;-64
2021/11/26 07:53:25;;;;;;;8.73;3.77;;;6.40;99.90;;;;;;4915824;23;20481;-64
2021/11/26 07:55:52;;;;;;;8.47;3.40;;;6.50;99.90;;;;;;4908667;29;21020;-64
2021/11/26 08:00:49;;;;;;;7.00;4.60;;;6.50;99.90;;;;;;4896752;23;20487;-68
2021/11/26 08:03:18;;;;;;;12.57;5.20;;;6.50;99.90;;;;;;4890300;29;20510;-66
2021/11/26 08:05:46;;;;;;;9.93;4.23;;;6.60;99.90;;;;;;4913876;23;20529;-64
2021/11/26 08:08:13;;;;;;;10.67;4.70;;;6.60;99.90;;;;;;4908596;29;21017;-66
2021/11/26 08:10:41;;;;;;;12.83;6.53;;;6.70;99.90;;;;;;4915178;23;20558;-67
2021/11/26 08:13:08;;;;;;;13.87;4.57;;;6.70;99.90;;;;;;4908158;29;20473;-68
2021/11/26 08:15:36;;;;;;;6.47;3.83;;;6.70;99.90;;;;;;4902936;23;20530;-67
2021/11/26 08:18:06;;;;;;;7.83;3.53;;;6.60;99.90;;;;;;4888813;29;20476;-66
2021/11/26 08:20:34;;;;;;;8.90;2.77;;;6.60;99.90;;;;;;4906416;23;20586;-63
2021/11/26 08:23:02;;;;;;;8.43;4.13;;;6.50;99.90;;;;;;4908533;29;20450;-65
2021/11/26 08:25:30;;;;;;;13.83;4.37;;;6.60;99.90;;;;;;4915113;23;20502;-68
2021/11/26 08:27:57;;;;;;;15.33;5.30;;;6.60;99.90;;;;;;4909163;29;20454;-69
2021/11/26 08:30:25;;;;;;;7.93;4.40;;;6.60;99.90;;;;;;4916503;23;20571;-67
2021/11/26 08:32:53;;;;;;;9.00;4.70;;;6.60;99.90;;;;;;4908677;29;20485;-61
2021/11/26 08:35:21;;;;;;;15.33;5.50;;;6.60;99.90;;;;;;4914815;23;20501;-66
2021/11/26 08:37:49;;;;;;;4.93;3.67;;;6.70;99.90;;;;;;4914406;23;20501;-65
2021/11/26 08:40:18;;;;;;;13.43;5.10;;;6.80;99.90;;;;;;4906368;29;20461;-67
2021/11/26 08:42:45;;;;;;;8.10;4.43;;;6.90;99.90;;;;;;4914321;23;20956;-61
2021/11/26 08:45:13;;;;;;;14.07;4.40;;;6.90;99.90;;;;;;4906338;29;20486;-65
2021/11/26 08:47:41;;;;;;;11.90;3.90;;;7.00;99.90;;;;;;4914239;23;20512;-65
2021/11/26 08:50:13;;;;;;;11.03;4.97;;;7.10;99.90;;;;;;4906456;29;20467;-63
2021/11/26 08:52:40;;;;;;;10.27;4.43;;;7.10;99.90;;;;;;4914022;23;20986;-60
2021/11/26 08:55:11;;;;;;;8.73;5.30;;;7.10;99.90;;;;;;4907218;29;20530;-64
2021/11/26 08:57:42;;;;;;;17.60;6.80;;;7.20;99.90;;;;;;4914851;23;20797;-59
2021/11/26 09:00:10;;;;;;;7.63;4.37;;;7.20;99.90;;;;;;4908267;29;20439;-64
2021/11/26 09:02:37;;;;;;;8.40;4.93;;;7.20;99.90;;;;;;4914450;23;20495;-65
2021/11/26 09:05:05;;;;;;;9.50;5.20;;;7.20;99.90;;;;;;4906710;29;20485;-66
2021/11/26 09:07:32;;;;;;;8.80;5.20;;;7.20;99.90;;;;;;4913045;23;20569;-66
2021/11/26 09:09:59;;;;;;;6.50;3.80;;;7.20;99.90;;;;;;4905983;29;20833;-65
2021/11/26 09:12:28;;;;;;;13.17;4.60;;;7.20;99.90;;;;;;4913334;23;20478;-65
2021/11/26 09:14:57;;;;;;;15.00;5.07;;;7.30;99.90;;;;;;4905996;29;20516;-62
2021/11/26 09:17:24;;;;;;;9.60;5.07;;;7.40;99.90;;;;;;4912866;23;20482;-64
2021/11/26 09:19:51;;;;;;;11.07;4.57;;;7.40;99.90;;;;;;4905827;29;20435;-65
2021/11/26 09:22:18;;;;;;;15.10;5.90;;;7.50;99.90;;;;;;4906347;29;20439;-67
2021/11/26 09:24:45;;;;;;;14.33;5.17;;;7.50;99.90;;;;;;4912800;23;20506;-68
2021/11/26 09:27:12;;;;;;;12.67;4.40;;;7.50;99.90;;;;;;4907396;29;20470;-67
2021/11/26 09:29:42;;;;;;;9.53;5.10;;;7.60;99.90;;;;;;4914157;23;20490;-66
2021/11/26 09:32:10;;;;;;;14.60;5.67;;;7.60;99.90;;;;;;4905796;29;20486;-64
2021/11/26 09:34:38;;;;;;;7.73;3.67;;;7.50;99.90;;;;;;4912892;23;20849;-62
2021/11/26 09:37:05;;;;;;;11.20;4.90;;;7.50;99.90;;;;;;4904758;29;20498;-62
2021/11/26 09:39:32;;;;;;;11.43;5.60;;;7.50;99.90;;;;;;4912108;23;20494;-61
2021/11/26 09:42:00;;;;;;;19.90;6.10;;;7.50;99.90;;;;;;4905800;29;20458;-65
2021/11/26 09:44:32;;;;;;;9.20;5.20;;;7.60;99.90;;;;;;4912637;23;20536;-66
2021/11/26 09:46:59;;;;;;;12.20;5.80;;;7.60;99.90;;;;;;4905886;29;20546;-65
2021/11/26 09:49:27;;;;;;;12.00;5.53;;;7.70;99.90;;;;;;4927229;23;20506;-67
2021/11/26 09:51:54;;;;;;;9.67;4.43;;;7.70;99.90;;;;;;4905835;29;20541;-68
2021/11/26 09:54:22;;;;;;;15.73;5.87;;;7.60;99.90;;;;;;4911906;23;20486;-66
2021/11/26 09:56:49;;;;;;;11.17;5.80;;;7.70;99.90;;;;;;4905683;29;20494;-67
2021/11/26 09:59:17;;;;;;;15.03;6.13;;;7.80;99.90;;;;;;4909938;23;20507;-64
2021/11/26 10:01:44;;;;;;;12.67;6.63;;;7.80;99.90;;;;;;4885647;29;20444;-66
2021/11/26 10:04:18;;;;;;;8.93;4.70;;;7.80;99.90;;;;;;4894084;23;20482;-66
2021/11/26 10:06:47;;;;;;;14.67;5.77;;;7.80;99.90;;;;;;4903379;29;20451;-62
2021/11/26 10:11:47;;;;;;;17.53;8.23;;;7.90;99.90;;;;;;4908938;23;20588;-68
2021/11/26 10:14:20;;;;;;;14.27;7.20;;;7.70;99.90;;;;;;4904632;29;20435;-63
2021/11/26 10:16:49;;;;;;;17.60;6.77;;;7.50;99.90;;;;;;4910603;23;20577;-65
2021/11/26 10:19:17;;;;;;;21.40;7.70;;;7.50;99.90;;;;;;4904510;29;20463;-61
2021/11/26 10:21:47;;;;;;;14.33;7.30;;;7.40;99.90;;;;;;4910948;23;20517;-61
2021/11/26 10:24:18;;;;;;;15.93;7.50;;;7.50;99.90;;;;;;4905666;29;20443;-67
2021/11/26 10:26:59;;;;;;;12.67;7.27;;;7.50;99.90;;;;;;4898424;23;20570;-68
2021/11/26 10:29:31;;;;;;;14.30;8.90;;;7.60;99.90;;;;;;4886239;29;20439;-66
2021/11/26 10:32:17;;;;;;;18.60;7.87;;;7.70;99.90;;;;;;4922509;23;20498;-67
2021/11/26 10:34:44;;;;;;;15.10;7.20;;;7.70;99.90;;;;;;4904090;29;20441;-66
2021/11/26 10:37:23;;;;;;;10.60;6.27;;;7.60;99.90;;;;;;4911341;23;20490;-67
2021/11/26 10:39:50;;;;;;;13.93;7.43;;;7.70;99.90;;;;;;4904511;29;20553;-62
2021/11/26 10:42:26;;;;;;;10.23;6.27;;;7.70;99.90;;;;;;4911673;23;20602;-59
2021/11/26 10:44:58;;;;;;;15.50;6.60;;;7.70;99.90;;;;;;4906464;29;20506;-67
2021/11/26 10:47:36;;;;;;;12.83;7.73;;;7.60;99.90;;;;;;4928428;23;20495;-63
2021/11/26 10:58:36;;;;;;;12.13;6.57;;;7.90;99.90;;;;;;4911211;23;20501;-62
2021/11/26 11:01:07;;;;;;;19.33;7.73;;;7.90;99.90;;;;;;4904069;29;20458;-65
2021/11/26 11:03:34;;;;;;;14.80;8.20;;;7.90;99.90;;;;;;4910433;23;20509;-62
2021/11/26 11:06:01;;;;;;;15.63;7.40;;;8.00;99.90;;;;;;4903236;29;20483;-63
2021/11/26 11:08:30;;;;;;;13.53;7.20;;;7.80;99.90;;;;;;4914310;23;20498;-64
2021/11/26 11:10:57;;;;;;;19.80;9.23;;;7.80;99.90;;;;;;4909401;29;20480;-67
2021/11/26 11:13:30;;;;;;;14.60;8.43;;;7.70;99.90;;;;;;4916542;23;20499;-66
2021/11/26 11:16:07;;;;;;;19.00;7.07;;;7.60;99.90;;;;;;4907542;29;20486;-68
2021/11/26 11:18:36;;;;;;;23.20;8.60;;;7.60;99.90;;;;;;4914908;23;20553;-63
2021/11/26 11:21:04;;;;;;;22.60;7.00;;;7.60;99.90;;;;;;4907390;29;20450;-67
2021/11/26 11:23:33;;;;;;;12.50;7.60;;;7.60;99.90;;;;;;4913956;23;20518;-68
2021/11/26 11:26:01;;;;;;;13.50;6.80;;;7.60;99.90;;;;;;4906904;29;20450;-66
2021/11/26 11:28:28;;;;;;;17.40;7.97;;;7.60;99.90;;;;;;4928415;23;20466;-64
2021/11/26 11:30:56;;;;;;;10.53;7.13;;;7.70;99.90;;;;;;4906599;29;20435;-63
2021/11/26 11:36:02;;;;;;;10.53;5.23;;;8.00;99.90;;;;;;4912067;23;20489;-59
2021/11/26 11:38:29;;;;;;;9.93;6.27;;;8.00;99.90;;;;;;4907999;29;20963;-63
2021/11/26 11:41:02;;;;;;;15.10;8.13;;;8.00;99.90;;;;;;4915836;23;20486;-67
2021/11/26 11:43:29;;;;;;;15.00;6.47;;;8.10;99.90;;;;;;4907955;29;20427;-65
2021/11/26 11:45:59;;;;;;;11.50;6.23;;;8.10;99.90;;;;;;4912856;23;20610;-66
2021/11/26 11:48:32;;;;;;;14.60;7.37;;;8.20;99.90;;;;;;4906633;29;20450;-65
2021/11/26 11:51:00;;;;;;;19.70;8.23;;;8.30;99.90;;;;;;4913010;23;20979;-66
2021/11/26 11:53:33;;;;;;;12.47;6.60;;;8.40;99.90;;;;;;4908249;29;20465;-67
2021/11/26 11:56:11;;;;;;;13.40;7.20;;;8.40;99.90;;;;;;4915161;23;20916;-62
2021/11/26 11:58:47;;;;;;;10.90;5.80;;;8.50;99.90;;;;;;4906447;29;20529;-66
2021/11/26 12:01:24;;;;;;;9.00;5.90;;;8.40;99.90;;;;;;4913365;23;20986;-66
2021/11/26 12:03:52;;;;;;;10.37;7.93;;;8.40;99.90;;;;;;4906393;29;20447;-67
2021/11/26 12:06:19;;;;;;;14.67;7.00;;;8.40;99.90;;;;;;4927469;23;20498;-62
2021/11/26 12:08:48;;;;;;;20.27;7.80;;;8.40;99.90;;;;;;4906353;29;20454;-65
2021/11/26 12:11:31;;;;;;;16.30;7.30;;;8.20;99.90;;;;;;4913294;23;20505;-67
2021/11/26 12:14:05;;;;;;;15.57;8.43;;;8.20;99.90;;;;;;4905962;29;20490;-67
2021/11/26 12:16:46;;;;;;;17.13;7.83;;;8.00;99.90;;;;;;4893627;23;20570;-64
2021/11/26 12:19:19;;;;;;;11.23;7.20;;;7.80;99.90;;;;;;4887199;29;20455;-66
2021/11/26 12:21:48;;;;;;;10.20;6.90;;;7.80;99.90;;;;;;4902016;23;20494;-69
2021/11/26 12:24:16;;;;;;;13.37;7.27;;;7.90;99.90;;;;;;4907513;29;20490;-67
2021/11/26 12:26:52;;;;;;;18.90;9.37;;;7.80;99.90;;;;;;4912756;23;20487;-64
2021/11/26 12:29:23;;;;;;;21.17;9.27;;;7.70;99.90;;;;;;4906168;29;20494;-62
2021/11/26 12:31:53;;;;;;;16.77;7.33;;;7.70;99.90;;;;;;4913169;23;20446;-67
2021/11/26 12:34:22;;;;;;;14.30;7.37;;;7.70;99.90;;;;;;4905400;29;20514;-69
2021/11/26 12:39:19;;;;;;;14.57;6.50;;;7.60;99.90;;;;;;4911001;23;20807;-65
2021/11/26 12:41:49;;;;;;;14.37;6.97;;;7.60;99.90;;;;;;4905733;29;20482;-69
2021/11/26 12:44:24;;;;;;;12.13;5.70;;;7.70;99.90;;;;;;4897037;23;20559;-65
2021/11/26 12:46:56;;;;;;;13.77;7.57;;;7.70;99.90;;;;;;4886924;29;20471;-61
2021/11/26 12:52:06;;;;;;;11.40;7.57;;;7.90;99.90;;;;;;4907675;29;20399;-68
2021/11/26 12:54:39;;;;;;;9.97;6.63;;;7.80;99.90;;;;;;4912944;23;20494;-64
2021/11/26 12:57:10;;;;;;;9.20;4.63;;;7.60;99.90;;;;;;4905476;29;21034;-65
2021/11/26 12:59:41;;;;;;;13.27;8.03;;;7.50;99.90;;;;;;4912408;23;20561;-69
2021/11/26 13:02:09;;;;;;;14.13;6.97;;;7.60;99.90;;;;;;4905496;29;20434;-67
2021/11/26 13:04:47;;;;;;;17.40;6.37;;;7.70;99.90;;;;;;4912267;23;20487;-66
2021/11/26 13:07:14;;;;;;;11.03;5.80;;;7.60;99.90;;;;;;4905635;29;20442;-62
2021/11/26 13:09:49;;;;;;;13.27;6.63;;;7.40;99.90;;;;;;4919990;23;20522;-63
2021/11/26 13:12:19;;;;;;;7.43;4.83;;;7.30;99.90;;;;;;4905271;29;20461;-65
2021/11/26 13:14:50;;;;;;;7.80;4.40;;;7.30;99.90;;;;;;4899630;23;20506;-66
2021/11/26 13:17:18;;;;;;;10.17;5.37;;;7.30;99.90;;;;;;4887148;29;20495;-64
2021/11/26 13:19:57;;;;;;;9.00;5.73;;;7.30;99.90;;;;;;4906435;23;20502;-62
2021/11/26 13:22:25;;;;;;;11.23;6.50;;;7.30;99.90;;;;;;4906553;29;20464;-63
2021/11/26 13:24:53;;;;;;;6.80;4.20;;;7.30;99.90;;;;;;4919659;23;20453;-66
2021/11/26 13:27:21;;;;;;;14.77;5.57;;;7.40;99.90;;;;;;4905295;29;20431;-67